Time,TemperatureF,DewpointF,PressureIn,WindDirection,WindDirectionDegrees,WindSpeedMPH,WindSpeedGustMPH,Humidity,HourlyPrecipIn,Conditions,Clouds,dailyrainin,SoftwareType,DateUTC
2013-04-26 00:00:00,74.7,62.1,30.15,NE,45,2.7,2.7,65,0.00,,---,0.00,VWS V14.00,2013-04-26 04:00:00,
2013-04-26 00:01:00,74.7,62.1,30.15,NNE,22,2.5,2.5,65,0.00,,---,0.00,VWS V14.00,2013-04-26 04:01:00,
2013-04-26 00:03:00,74.7,62.1,30.15,NE,45,3.4,3.4,65,0.00,,---,0.00,VWS V14.00,2013-04-26 04:03:00,
2013-04-26 00:05:00,74.5,62.0,30.15,NNE,22,2.0,2.5,65,0.00,,---,0.00,VWS V14.00,2013-04-26 04:05:00,
2013-04-26 00:10:00,74.5,62.0,30.15,NNE,22,2.7,2.7,65,0.00,,---,0.00,VWS V14.00,2013-04-26 04:10:00,
2013-04-26 00:16:00,74.5,62.0,30.15,NNW,338,2.5,2.7,65,0.00,,---,0.00,VWS V14.00,2013-04-26 04:16:00,
2013-04-26 00:21:00,74.5,62.4,30.15,NE,45,3.6,3.6,66,0.00,,---,0.00,VWS V14.00,2013-04-26 04:21:00,
2013-04-26 00:27:00,74.5,62.8,30.15,ENE,68,4.3,4.3,67,0.00,,---,0.00,VWS V14.00,2013-04-26 04:27:00,
2013-04-26 00:33:00,74.3,62.2,30.15,NE,45,3.4,3.4,66,0.00,,---,0.00,VWS V14.00,2013-04-26 04:33:00,
2013-04-26 00:39:00,74.3,62.6,30.15,ENE,68,4.0,4.0,67,0.00,,---,0.00,VWS V14.00,2013-04-26 04:39:00,
2013-04-26 00:44:00,74.3,62.2,30.15,ENE,68,3.1,3.1,66,0.00,,---,0.00,VWS V14.00,2013-04-26 04:44:00,
2013-04-26 00:49:00,74.3,62.6,30.15,ENE,68,2.9,3.4,67,0.00,,---,0.00,VWS V14.00,2013-04-26 04:49:00,
2013-04-26 00:55:00,74.3,62.6,30.15,ENE,68,3.4,6.3,67,0.00,,---,0.00,VWS V14.00,2013-04-26 04:55:00,
2013-04-26 01:00:00,74.1,62.5,30.15,ENE,68,3.8,3.8,67,0.00,,---,0.00,VWS V14.00,2013-04-26 05:00:00,
2013-04-26 01:06:00,74.1,62.9,30.15,ENE,68,2.5,3.4,68,0.00,,---,0.00,VWS V14.00,2013-04-26 05:06:00,
2013-04-26 01:13:00,74.1,62.9,30.15,NE,45,3.8,3.8,68,0.00,,---,0.00,VWS V14.00,2013-04-26 05:13:00,
2013-04-26 01:18:00,74.1,62.5,30.15,NE,45,4.3,4.3,67,0.00,,---,0.00,VWS V14.00,2013-04-26 05:18:00,
2013-04-26 01:23:00,73.9,62.3,30.15,ENE,68,2.9,2.9,67,0.00,,---,0.00,VWS V14.00,2013-04-26 05:23:00,
2013-04-26 01:29:00,73.9,62.3,30.12,ENE,68,2.5,2.5,67,0.00,,---,0.00,VWS V14.00,2013-04-26 05:29:00,
2013-04-26 01:35:00,73.9,62.3,30.12,ENE,68,2.7,2.7,67,0.00,,---,0.00,VWS V14.00,2013-04-26 05:35:00,
2013-04-26 01:40:00,73.8,61.7,30.12,NE,45,2.7,2.7,66,0.00,,---,0.00,VWS V14.00,2013-04-26 05:40:00,
2013-04-26 01:45:00,73.8,62.1,30.12,NNE,22,2.7,2.7,67,0.00,,---,0.00,VWS V14.00,2013-04-26 05:45:00,
2013-04-26 01:51:00,73.8,62.1,30.12,NNE,22,2.9,2.9,67,0.00,,---,0.00,VWS V14.00,2013-04-26 05:51:00,
2013-04-26 01:57:00,73.8,62.1,30.12,NNE,22,2.5,2.9,67,0.00,,---,0.00,VWS V14.00,2013-04-26 05:57:00,
2013-04-26 02:02:00,73.6,62.0,30.12,NNE,22,3.6,3.6,67,0.00,,---,0.00,VWS V14.00,2013-04-26 06:02:00,
2013-04-26 02:07:00,73.6,62.4,30.12,NE,45,1.3,2.9,68,0.00,,---,0.00,VWS V14.00,2013-04-26 06:07:00,
2013-04-26 02:13:00,73.6,62.0,30.12,NNE,22,0.0,3.4,67,0.00,,---,0.00,VWS V14.00,2013-04-26 06:13:00,
2013-04-26 02:18:00,73.6,62.0,30.12,ENE,68,2.7,2.7,67,0.00,,---,0.00,VWS V14.00,2013-04-26 06:18:00,
2013-04-26 02:22:00,73.6,62.0,30.12,ENE,68,2.7,2.7,67,0.00,,---,0.00,VWS V14.00,2013-04-26 06:22:00,
2013-04-26 02:28:00,73.6,62.0,30.12,NE,45,1.1,2.9,67,0.00,,---,0.00,VWS V14.00,2013-04-26 06:28:00,
2013-04-26 02:33:00,73.6,62.0,30.12,NNE,22,2.2,2.2,67,0.00,,---,0.00,VWS V14.00,2013-04-26 06:33:00,
2013-04-26 02:39:00,73.6,62.0,30.12,ENE,68,0.9,1.3,67,0.00,,---,0.00,VWS V14.00,2013-04-26 06:39:00,
2013-04-26 02:44:00,73.6,62.0,30.12,NNE,22,2.9,3.4,67,0.00,,---,0.00,VWS V14.00,2013-04-26 06:44:00,
2013-04-26 02:51:00,73.6,62.0,30.12,NE,45,2.7,3.6,67,0.00,,---,0.00,VWS V14.00,2013-04-26 06:51:00,
2013-04-26 02:57:00,73.6,62.0,30.12,NNE,22,2.7,2.7,67,0.00,,---,0.00,VWS V14.00,2013-04-26 06:57:00,
2013-04-26 03:02:00,73.6,62.0,30.12,NE,45,2.2,2.2,67,0.00,,---,0.00,VWS V14.00,2013-04-26 07:02:00,
2013-04-26 03:08:00,73.4,61.8,30.12,North,0,2.7,2.7,67,0.00,,---,0.00,VWS V14.00,2013-04-26 07:08:00,
2013-04-26 03:13:00,73.4,61.8,30.12,NNE,22,1.6,2.9,67,0.00,,---,0.00,VWS V14.00,2013-04-26 07:13:00,
2013-04-26 03:18:00,73.4,61.8,30.12,North,0,1.6,1.6,67,0.00,,---,0.00,VWS V14.00,2013-04-26 07:18:00,
2013-04-26 03:23:00,73.4,61.8,30.12,ENE,68,1.3,1.3,67,0.00,,---,0.00,VWS V14.00,2013-04-26 07:23:00,
2013-04-26 03:28:00,73.4,61.8,30.12,NE,45,2.5,2.5,67,0.00,,---,0.00,VWS V14.00,2013-04-26 07:28:00,
2013-04-26 03:34:00,73.2,61.6,30.12,NE,45,1.6,1.6,67,0.00,,---,0.00,VWS V14.00,2013-04-26 07:34:00,
2013-04-26 03:39:00,73.2,61.6,30.12,East,90,2.0,2.0,67,0.00,,---,0.00,VWS V14.00,2013-04-26 07:39:00,
2013-04-26 03:44:00,73.2,61.6,30.09,NE,45,2.5,3.6,67,0.00,,---,0.00,VWS V14.00,2013-04-26 07:44:00,
2013-04-26 03:50:00,73.0,61.5,30.09,East,90,0.0,1.1,67,0.00,,---,0.00,VWS V14.00,2013-04-26 07:50:00,
2013-04-26 03:55:00,73.0,61.5,30.09,ENE,68,1.3,1.3,67,0.00,,---,0.00,VWS V14.00,2013-04-26 07:55:00,
2013-04-26 04:00:00,73.0,61.9,30.09,East,90,2.7,3.4,68,0.00,,---,0.00,VWS V14.00,2013-04-26 08:00:00,
2013-04-26 04:06:00,73.0,61.9,30.09,NE,45,2.9,2.9,68,0.00,,---,0.00,VWS V14.00,2013-04-26 08:06:00,
2013-04-26 04:11:00,73.0,61.9,30.09,ENE,68,2.5,3.4,68,0.00,,---,0.00,VWS V14.00,2013-04-26 08:11:00,
2013-04-26 04:16:00,72.9,61.7,30.09,NE,45,1.3,2.9,68,0.00,,---,0.00,VWS V14.00,2013-04-26 08:16:00,
2013-04-26 04:22:00,72.9,61.3,30.09,NE,45,0.0,0.0,67,0.00,,---,0.00,VWS V14.00,2013-04-26 08:22:00,
2013-04-26 04:29:00,72.9,61.3,30.09,East,90,1.1,1.1,67,0.00,,---,0.00,VWS V14.00,2013-04-26 08:29:00,
2013-04-26 04:34:00,72.7,61.1,30.09,ENE,68,0.9,0.9,67,0.00,,---,0.00,VWS V14.00,2013-04-26 08:34:00,
2013-04-26 04:39:00,72.7,61.1,30.09,ENE,68,1.6,1.6,67,0.00,,---,0.00,VWS V14.00,2013-04-26 08:39:00,
2013-04-26 04:44:00,72.5,60.5,30.09,ENE,68,0.0,0.9,66,0.00,,---,0.00,VWS V14.00,2013-04-26 08:44:00,
2013-04-26 04:50:00,72.5,60.5,30.09,ENE,68,0.0,0.0,66,0.00,,---,0.00,VWS V14.00,2013-04-26 08:50:00,
2013-04-26 04:55:00,72.3,60.3,30.09,East,90,0.0,0.0,66,0.00,,---,0.00,VWS V14.00,2013-04-26 08:55:00,
2013-04-26 05:00:00,72.3,60.3,30.09,East,90,0.0,0.0,66,0.00,,---,0.00,VWS V14.00,2013-04-26 09:00:00,
2013-04-26 05:07:00,72.1,60.2,30.09,East,90,2.0,2.7,66,0.00,,---,0.00,VWS V14.00,2013-04-26 09:07:00,
2013-04-26 05:13:00,72.1,60.2,30.09,East,90,0.0,0.0,66,0.00,,---,0.00,VWS V14.00,2013-04-26 09:13:00,
2013-04-26 05:18:00,72.1,60.2,30.09,SSE,158,0.9,0.9,66,0.00,,---,0.00,VWS V14.00,2013-04-26 09:18:00,
2013-04-26 05:23:00,72.0,60.0,30.09,East,90,0.0,0.0,66,0.00,,---,0.00,VWS V14.00,2013-04-26 09:23:00,
2013-04-26 05:29:00,72.0,60.0,30.09,East,90,2.0,2.0,66,0.00,,---,0.00,VWS V14.00,2013-04-26 09:29:00,
2013-04-26 05:34:00,71.8,59.8,30.09,East,90,0.0,0.0,66,0.00,,---,0.00,VWS V14.00,2013-04-26 09:34:00,
2013-04-26 05:39:00,71.8,59.8,30.09,East,90,0.0,0.0,66,0.00,,---,0.00,VWS V14.00,2013-04-26 09:39:00,
2013-04-26 05:44:00,71.8,59.8,30.09,ENE,68,0.0,0.9,66,0.00,,---,0.00,VWS V14.00,2013-04-26 09:44:00,
2013-04-26 05:49:00,71.8,59.8,30.09,ENE,68,0.0,0.0,66,0.00,,---,0.00,VWS V14.00,2013-04-26 09:49:00,
2013-04-26 05:55:00,71.6,59.7,30.09,ENE,68,0.0,0.0,66,0.00,,---,0.00,VWS V14.00,2013-04-26 09:55:00,
2013-04-26 06:00:00,71.6,59.7,30.09,NE,45,1.3,1.3,66,0.00,,---,0.00,VWS V14.00,2013-04-26 10:00:00,
2013-04-26 06:07:00,71.4,59.5,30.09,NNE,22,1.1,1.6,66,0.00,,---,0.00,VWS V14.00,2013-04-26 10:07:00,
2013-04-26 06:13:00,71.4,59.5,30.09,NNE,22,1.1,1.1,66,0.00,,---,0.00,VWS V14.00,2013-04-26 10:13:00,
2013-04-26 06:18:00,71.4,59.9,30.12,NE,45,0.9,1.3,67,0.00,,---,0.00,VWS V14.00,2013-04-26 10:18:00,
2013-04-26 06:24:00,71.2,59.7,30.12,NE,45,1.3,1.3,67,0.00,,---,0.00,VWS V14.00,2013-04-26 10:24:00,
2013-04-26 06:30:00,71.2,59.7,30.12,NE,45,0.0,1.1,67,0.00,,---,0.00,VWS V14.00,2013-04-26 10:30:00,
2013-04-26 06:35:00,71.1,59.6,30.12,NE,45,1.1,1.3,67,0.00,,---,0.00,VWS V14.00,2013-04-26 10:35:00,
2013-04-26 06:41:00,71.1,59.6,30.12,NE,45,1.3,1.3,67,0.00,,---,0.00,VWS V14.00,2013-04-26 10:41:00,
2013-04-26 06:47:00,71.1,59.6,30.12,NE,45,0.9,1.1,67,0.00,,---,0.00,VWS V14.00,2013-04-26 10:47:00,
2013-04-26 06:52:00,70.9,59.4,30.12,ENE,68,0.0,0.0,67,0.00,,---,0.00,VWS V14.00,2013-04-26 10:52:00,
2013-04-26 06:57:00,70.9,59.4,30.12,NE,45,0.9,1.3,67,0.00,,---,0.00,VWS V14.00,2013-04-26 10:57:00,
2013-04-26 07:03:00,70.9,59.4,30.12,NE,45,0.9,1.6,67,0.00,,---,0.00,VWS V14.00,2013-04-26 11:03:00,
2013-04-26 07:08:00,70.9,59.4,30.12,NE,45,1.6,1.6,67,0.00,,---,0.00,VWS V14.00,2013-04-26 11:08:00,
2013-04-26 07:13:00,70.7,59.6,30.12,NE,45,0.0,1.1,68,0.00,,---,0.00,VWS V14.00,2013-04-26 11:13:00,
2013-04-26 07:18:00,70.9,59.8,30.12,ENE,68,2.0,2.5,68,0.00,,---,0.00,VWS V14.00,2013-04-26 11:18:00,
2013-04-26 07:25:00,70.9,60.2,30.12,ENE,68,2.2,2.2,69,0.00,,---,0.00,VWS V14.00,2013-04-26 11:25:00,
2013-04-26 07:30:00,71.1,60.8,30.12,ENE,68,2.5,2.7,70,0.00,,---,0.00,VWS V14.00,2013-04-26 11:30:00,
2013-04-26 07:35:00,71.1,60.8,30.12,ENE,68,2.5,2.5,70,0.00,,---,0.00,VWS V14.00,2013-04-26 11:35:00,
2013-04-26 07:41:00,71.2,61.0,30.12,NE,45,1.1,2.7,70,0.00,,---,0.00,VWS V14.00,2013-04-26 11:41:00,
2013-04-26 07:47:00,71.2,61.0,30.15,ENE,68,1.3,2.2,70,0.00,,---,0.00,VWS V14.00,2013-04-26 11:47:00,
2013-04-26 07:53:00,71.4,61.1,30.15,ENE,68,2.5,2.5,70,0.00,,---,0.00,VWS V14.00,2013-04-26 11:53:00,
2013-04-26 07:58:00,71.6,61.3,30.15,East,90,0.9,1.3,70,0.00,,---,0.00,VWS V14.00,2013-04-26 11:58:00,
2013-04-26 08:04:00,71.8,61.1,30.15,ESE,112,0.9,2.5,69,0.00,,---,0.00,VWS V14.00,2013-04-26 12:04:00,
2013-04-26 08:09:00,72.0,61.2,30.15,East,90,1.3,1.3,69,0.00,,---,0.00,VWS V14.00,2013-04-26 12:09:00,
2013-04-26 08:15:00,72.1,61.4,30.15,ESE,112,0.9,2.5,69,0.00,,---,0.00,VWS V14.00,2013-04-26 12:15:00,
2013-04-26 08:20:00,72.3,62.0,30.15,East,90,0.9,3.4,70,0.00,,---,0.00,VWS V14.00,2013-04-26 12:20:00,
2013-04-26 08:26:00,72.5,62.2,30.15,NE,45,0.0,1.1,70,0.00,,---,0.00,VWS V14.00,2013-04-26 12:26:00,
2013-04-26 08:31:00,72.7,62.3,30.15,East,90,2.0,2.7,70,0.00,,---,0.00,VWS V14.00,2013-04-26 12:31:00,
2013-04-26 08:38:00,73.0,62.7,30.15,South,180,0.0,2.5,70,0.00,,---,0.00,VWS V14.00,2013-04-26 12:38:00,
2013-04-26 08:43:00,73.2,62.9,30.15,South,180,1.6,2.5,70,0.00,,---,0.00,VWS V14.00,2013-04-26 12:43:00,
2013-04-26 08:48:00,73.6,62.4,30.15,South,180,2.7,3.8,68,0.00,,---,0.00,VWS V14.00,2013-04-26 12:48:00,
2013-04-26 08:54:00,73.6,62.4,30.15,SSE,158,1.3,2.5,68,0.00,,---,0.00,VWS V14.00,2013-04-26 12:54:00,
2013-04-26 09:00:00,73.9,62.7,30.15,WSW,248,2.0,2.0,68,0.00,,---,0.00,VWS V14.00,2013-04-26 13:00:00,
2013-04-26 09:05:00,74.1,62.5,30.15,East,90,1.3,2.7,67,0.00,,---,0.00,VWS V14.00,2013-04-26 13:05:00,
2013-04-26 09:11:00,74.3,62.6,30.15,SE,135,0.0,1.3,67,0.00,,---,0.00,VWS V14.00,2013-04-26 13:11:00,
2013-04-26 09:16:00,74.7,62.6,30.15,SSE,158,2.7,2.9,66,0.00,,---,0.00,VWS V14.00,2013-04-26 13:16:00,
2013-04-26 09:21:00,74.8,62.7,30.15,SSW,202,3.1,3.1,66,0.00,,---,0.00,VWS V14.00,2013-04-26 13:21:00,
2013-04-26 09:27:00,75.0,62.9,30.15,SSW,202,3.4,3.4,66,0.00,,---,0.00,VWS V14.00,2013-04-26 13:27:00,
2013-04-26 09:32:00,75.4,63.2,30.15,South,180,4.9,4.9,66,0.00,,---,0.00,VWS V14.00,2013-04-26 13:32:00,
2013-04-26 09:38:00,75.6,63.0,30.15,SSE,158,3.8,3.8,65,0.00,,---,0.00,VWS V14.00,2013-04-26 13:38:00,
2013-04-26 09:43:00,75.7,63.2,30.15,SSE,158,2.5,2.5,65,0.00,,---,0.00,VWS V14.00,2013-04-26 13:43:00,
2013-04-26 09:49:00,75.7,63.2,30.15,SE,135,1.6,1.6,65,0.00,,---,0.00,VWS V14.00,2013-04-26 13:49:00,
2013-04-26 09:54:00,76.1,62.6,30.15,South,180,2.2,2.7,63,0.00,,---,0.00,VWS V14.00,2013-04-26 13:54:00,
2013-04-26 10:01:00,76.3,63.2,30.18,WNW,292,0.9,2.5,64,0.00,,---,0.00,VWS V14.00,2013-04-26 14:01:00,
2013-04-26 10:06:00,76.5,62.9,30.18,SW,225,3.1,3.8,63,0.00,,---,0.00,VWS V14.00,2013-04-26 14:06:00,
2013-04-26 10:12:00,76.6,63.1,30.18,SE,135,3.4,3.4,63,0.00,,---,0.00,VWS V14.00,2013-04-26 14:12:00,
2013-04-26 10:17:00,76.8,63.3,30.18,SE,135,2.9,4.0,63,0.00,,---,0.00,VWS V14.00,2013-04-26 14:17:00,
2013-04-26 10:22:00,77.0,62.5,30.18,SSE,158,2.0,3.6,61,0.00,,---,0.00,VWS V14.00,2013-04-26 14:22:00,
2013-04-26 10:27:00,77.2,62.2,30.18,SSW,202,3.1,3.1,60,0.00,,---,0.00,VWS V14.00,2013-04-26 14:27:00,
2013-04-26 10:33:00,77.4,61.9,30.18,ESE,112,3.6,3.6,59,0.00,,---,0.00,VWS V14.00,2013-04-26 14:33:00,
2013-04-26 10:40:00,77.4,61.0,30.18,South,180,3.8,3.8,57,0.00,,---,0.00,VWS V14.00,2013-04-26 14:40:00,
2013-04-26 10:45:00,77.5,61.1,30.18,SSE,158,3.6,3.8,57,0.00,,---,0.00,VWS V14.00,2013-04-26 14:45:00,
2013-04-26 10:50:00,77.5,62.1,30.18,SSW,202,3.4,4.9,59,0.00,,---,0.00,VWS V14.00,2013-04-26 14:50:00,
2013-04-26 10:55:00,77.7,61.3,30.18,South,180,2.9,2.9,57,0.00,,---,0.00,VWS V14.00,2013-04-26 14:55:00,
2013-04-26 11:01:00,77.9,61.5,30.18,SSW,202,2.9,3.1,57,0.00,,---,0.00,VWS V14.00,2013-04-26 15:01:00,
2013-04-26 11:06:00,78.1,61.6,30.18,South,180,4.3,4.3,57,0.00,,---,0.00,VWS V14.00,2013-04-26 15:06:00,
2013-04-26 11:12:00,78.3,61.3,30.18,South,180,3.6,3.6,56,0.00,,---,0.00,VWS V14.00,2013-04-26 15:12:00,
2013-04-26 11:18:00,78.4,60.4,30.18,South,180,2.9,2.9,54,0.00,,---,0.00,VWS V14.00,2013-04-26 15:18:00,
2013-04-26 11:24:00,78.6,60.6,30.18,South,180,5.4,5.4,54,0.00,,---,0.00,VWS V14.00,2013-04-26 15:24:00,
2013-04-26 11:29:00,78.6,60.6,30.18,SSW,202,3.8,3.8,54,0.00,,---,0.00,VWS V14.00,2013-04-26 15:29:00,
2013-04-26 11:34:00,78.8,59.7,30.18,SSE,158,4.0,4.0,52,0.00,,---,0.00,VWS V14.00,2013-04-26 15:34:00,
2013-04-26 11:39:00,79.0,59.3,30.18,SSW,202,3.4,5.6,51,0.00,,---,0.00,VWS V14.00,2013-04-26 15:39:00,
2013-04-26 11:45:00,79.3,59.7,30.18,South,180,6.3,6.3,51,0.00,,---,0.00,VWS V14.00,2013-04-26 15:45:00,
2013-04-26 11:50:00,79.5,59.3,30.18,SSW,202,3.1,3.1,50,0.00,,---,0.00,VWS V14.00,2013-04-26 15:50:00,
2013-04-26 11:56:00,79.5,59.8,30.18,SW,225,3.8,4.0,51,0.00,,---,0.00,VWS V14.00,2013-04-26 15:56:00,
2013-04-26 12:01:00,79.9,60.2,30.18,South,180,5.4,5.4,51,0.00,,---,0.00,VWS V14.00,2013-04-26 16:01:00,
2013-04-26 12:06:00,79.9,59.6,30.18,WSW,248,3.4,3.6,50,0.00,,---,0.00,VWS V14.00,2013-04-26 16:06:00,
2013-04-26 12:12:00,79.7,59.4,30.18,WSW,248,3.4,7.4,50,0.00,,---,0.00,VWS V14.00,2013-04-26 16:12:00,
2013-04-26 12:18:00,79.9,60.2,30.18,SSW,202,3.8,3.8,51,0.00,,---,0.00,VWS V14.00,2013-04-26 16:18:00,
2013-04-26 12:24:00,80.1,59.2,30.18,SW,225,5.6,5.6,49,0.00,,---,0.00,VWS V14.00,2013-04-26 16:24:00,
2013-04-26 12:29:00,80.2,59.9,30.18,WSW,248,5.8,5.8,50,0.00,,---,0.00,VWS V14.00,2013-04-26 16:29:00,
2013-04-26 12:35:00,80.4,59.5,30.18,SW,225,6.0,6.0,49,0.00,,---,0.00,VWS V14.00,2013-04-26 16:35:00,
2013-04-26 12:40:00,80.4,59.5,30.18,West,270,4.0,5.8,49,0.00,,---,0.00,VWS V14.00,2013-04-26 16:40:00,
2013-04-26 12:45:00,80.6,59.7,30.15,WSW,248,4.7,5.4,49,0.00,,---,0.00,VWS V14.00,2013-04-26 16:45:00,
2013-04-26 12:51:00,80.6,60.3,30.15,SSW,202,5.6,5.6,50,0.00,,---,0.00,VWS V14.00,2013-04-26 16:51:00,
2013-04-26 12:56:00,81.0,61.2,30.15,SW,225,5.4,5.4,51,0.00,,---,0.00,VWS V14.00,2013-04-26 16:56:00,
2013-04-26 13:03:00,81.1,60.2,30.15,SW,225,5.4,5.4,49,0.00,,---,0.00,VWS V14.00,2013-04-26 17:03:00,
2013-04-26 13:08:00,81.3,60.3,30.15,WSW,248,7.4,7.4,49,0.00,,---,0.00,VWS V14.00,2013-04-26 17:08:00,
2013-04-26 13:14:00,81.1,61.3,30.15,WSW,248,5.4,5.4,51,0.00,,---,0.00,VWS V14.00,2013-04-26 17:14:00,
2013-04-26 13:19:00,81.3,60.9,30.15,SSW,202,6.3,6.3,50,0.00,,---,0.00,VWS V14.00,2013-04-26 17:19:00,
2013-04-26 13:25:00,81.5,59.9,30.15,SSW,202,3.6,5.8,48,0.00,,---,0.00,VWS V14.00,2013-04-26 17:25:00,
2013-04-26 13:31:00,81.5,59.9,30.15,SW,225,4.0,6.0,48,0.00,,---,0.00,VWS V14.00,2013-04-26 17:31:00,
2013-04-26 13:36:00,82.0,60.4,30.15,WSW,248,7.6,7.6,48,0.00,,---,0.00,VWS V14.00,2013-04-26 17:36:00,
2013-04-26 13:42:00,82.2,60.0,30.15,WSW,248,3.6,5.8,47,0.00,,---,0.00,VWS V14.00,2013-04-26 17:42:00,
2013-04-26 13:47:00,82.4,60.8,30.15,WSW,248,5.4,6.3,48,0.00,,---,0.00,VWS V14.00,2013-04-26 17:47:00,
2013-04-26 13:52:00,82.8,60.5,30.15,WSW,248,6.5,6.5,47,0.00,,---,0.00,VWS V14.00,2013-04-26 17:52:00,
2013-04-26 13:57:00,83.1,60.2,30.15,WSW,248,3.8,4.3,46,0.00,,---,0.00,VWS V14.00,2013-04-26 17:57:00,
2013-04-26 14:03:00,83.1,60.2,30.15,WSW,248,5.8,5.8,46,0.00,,---,0.00,VWS V14.00,2013-04-26 18:03:00,
2013-04-26 14:08:00,83.3,60.4,30.15,SSW,202,7.6,7.6,46,0.00,,---,0.00,VWS V14.00,2013-04-26 18:08:00,
2013-04-26 14:14:00,83.3,60.4,30.15,WSW,248,6.3,6.3,46,0.00,,---,0.00,VWS V14.00,2013-04-26 18:14:00,
2013-04-26 14:20:00,84.0,61.6,30.15,WNW,292,8.5,8.5,47,0.00,,---,0.00,VWS V14.00,2013-04-26 18:20:00,
2013-04-26 14:26:00,84.6,59.6,30.15,West,270,7.2,7.2,43,0.00,,---,0.00,VWS V14.00,2013-04-26 18:26:00,
2013-04-26 14:31:00,84.6,60.9,30.15,West,270,5.4,5.4,45,0.00,,---,0.00,VWS V14.00,2013-04-26 18:31:00,
2013-04-26 14:37:00,85.5,61.1,30.15,WSW,248,4.0,7.2,44,0.00,,---,0.00,VWS V14.00,2013-04-26 18:37:00,
2013-04-26 14:42:00,85.5,61.1,30.15,WSW,248,4.7,5.8,44,0.00,,---,0.00,VWS V14.00,2013-04-26 18:42:00,
2013-04-26 14:48:00,85.5,61.1,30.15,West,270,5.6,5.6,44,0.00,,---,0.00,VWS V14.00,2013-04-26 18:48:00,
2013-04-26 14:54:00,85.6,61.2,30.15,WSW,248,7.8,10.1,44,0.00,,---,0.00,VWS V14.00,2013-04-26 18:54:00,
2013-04-26 15:01:00,85.8,62.0,30.15,WNW,292,5.8,7.6,45,0.00,,---,0.00,VWS V14.00,2013-04-26 19:01:00,
2013-04-26 15:07:00,86.4,62.5,30.15,WNW,292,6.3,7.6,45,0.00,,---,0.00,VWS V14.00,2013-04-26 19:07:00,
2013-04-26 15:12:00,87.1,62.5,30.15,West,270,4.3,5.8,44,0.00,,---,0.00,VWS V14.00,2013-04-26 19:12:00,
2013-04-26 15:19:00,87.4,62.9,30.15,West,270,5.8,6.5,44,0.00,,---,0.00,VWS V14.00,2013-04-26 19:19:00,
2013-04-26 15:24:00,87.3,62.7,30.15,West,270,3.1,3.1,44,0.00,,---,0.00,VWS V14.00,2013-04-26 19:24:00,
2013-04-26 15:29:00,87.4,62.2,30.15,West,270,7.8,7.8,43,0.00,,---,0.00,VWS V14.00,2013-04-26 19:29:00,
2013-04-26 15:34:00,87.6,63.0,30.15,WSW,248,5.8,9.0,44,0.00,,---,0.00,VWS V14.00,2013-04-26 19:34:00,
2013-04-26 15:39:00,87.8,63.2,30.15,West,270,6.3,6.3,44,0.00,,---,0.00,VWS V14.00,2013-04-26 19:39:00,
2013-04-26 15:45:00,88.0,62.7,30.12,WNW,292,2.2,2.9,43,0.00,,---,0.00,VWS V14.00,2013-04-26 19:45:00,
2013-04-26 15:51:00,88.5,62.5,30.12,West,270,6.9,6.9,42,0.00,,---,0.00,VWS V14.00,2013-04-26 19:51:00,
2013-04-26 15:56:00,88.9,62.8,30.12,WNW,292,3.8,6.0,42,0.00,,---,0.00,VWS V14.00,2013-04-26 19:56:00,
2013-04-26 16:01:00,88.5,62.5,30.12,WNW,292,10.3,10.3,42,0.00,,---,0.00,VWS V14.00,2013-04-26 20:01:00,
2013-04-26 16:06:00,87.4,62.2,30.12,West,270,6.5,6.5,43,0.00,,---,0.00,VWS V14.00,2013-04-26 20:06:00,
2013-04-26 16:13:00,87.1,63.2,30.12,NNW,338,5.8,7.8,45,0.00,,---,0.00,VWS V14.00,2013-04-26 20:13:00,
2013-04-26 16:19:00,86.5,62.7,30.12,NW,315,5.6,7.8,45,0.00,,---,0.00,VWS V14.00,2013-04-26 20:19:00,
2013-04-26 16:24:00,87.1,62.5,30.12,WNW,292,8.7,8.7,44,0.00,,---,0.00,VWS V14.00,2013-04-26 20:24:00,
2013-04-26 16:30:00,86.5,63.3,30.12,West,270,8.7,8.7,46,0.00,,---,0.00,VWS V14.00,2013-04-26 20:30:00,
2013-04-26 16:35:00,86.7,62.9,30.12,WNW,292,7.4,12.1,45,0.00,,---,0.00,VWS V14.00,2013-04-26 20:35:00,
2013-04-26 16:40:00,86.2,62.4,30.12,WNW,292,6.5,6.5,45,0.00,,---,0.00,VWS V14.00,2013-04-26 20:40:00,
2013-04-26 16:46:00,85.1,62.0,30.09,WNW,292,7.2,7.6,46,0.00,,---,0.00,VWS V14.00,2013-04-26 20:46:00,
2013-04-26 16:52:00,86.0,62.8,30.09,WNW,292,6.3,8.7,46,0.00,,---,0.00,VWS V14.00,2013-04-26 20:52:00,
2013-04-26 16:57:00,86.0,62.8,30.09,WNW,292,8.7,8.7,46,0.00,,---,0.00,VWS V14.00,2013-04-26 20:57:00,
2013-04-26 17:02:00,86.0,62.8,30.09,West,270,8.1,8.5,46,0.00,,---,0.00,VWS V14.00,2013-04-26 21:02:00,
2013-04-26 17:08:00,86.0,63.4,30.09,WNW,292,6.3,7.8,47,0.00,,---,0.00,VWS V14.00,2013-04-26 21:08:00,
2013-04-26 17:14:00,86.2,63.6,30.09,WNW,292,8.5,8.5,47,0.00,,---,0.00,VWS V14.00,2013-04-26 21:14:00,
2013-04-26 17:19:00,86.0,63.4,30.09,WNW,292,5.6,8.5,47,0.00,,---,0.00,VWS V14.00,2013-04-26 21:19:00,
2013-04-26 17:24:00,86.2,64.2,30.09,NW,315,7.4,7.4,48,0.00,,---,0.00,VWS V14.00,2013-04-26 21:24:00,
2013-04-26 17:30:00,85.5,63.5,30.09,WNW,292,9.8,9.8,48,0.00,,---,0.00,VWS V14.00,2013-04-26 21:30:00,
2013-04-26 17:36:00,85.1,63.8,30.09,NW,315,9.2,9.2,49,0.00,,---,0.00,VWS V14.00,2013-04-26 21:36:00,
2013-04-26 17:41:00,84.9,63.7,30.09,WNW,292,7.4,11.4,49,0.00,,---,0.00,VWS V14.00,2013-04-26 21:41:00,
2013-04-26 17:47:00,84.2,64.7,30.09,NNW,338,3.8,8.5,52,0.00,,---,0.00,VWS V14.00,2013-04-26 21:47:00,
2013-04-26 17:52:00,84.2,64.7,30.09,NW,315,8.5,8.5,52,0.00,,---,0.00,VWS V14.00,2013-04-26 21:52:00,
2013-04-26 17:58:00,83.8,64.9,30.09,NW,315,6.5,6.5,53,0.00,,---,0.00,VWS V14.00,2013-04-26 21:58:00,
2013-04-26 18:03:00,83.7,64.7,30.09,WNW,292,10.1,10.1,53,0.00,,---,0.00,VWS V14.00,2013-04-26 22:03:00,
2013-04-26 18:08:00,83.1,65.3,30.09,NW,315,5.6,6.0,55,0.00,,---,0.00,VWS V14.00,2013-04-26 22:08:00,
2013-04-26 18:14:00,83.5,65.6,30.09,NNW,338,6.3,10.5,55,0.00,,---,0.00,VWS V14.00,2013-04-26 22:14:00,
2013-04-26 18:20:00,83.5,65.6,30.09,NW,315,7.4,7.4,55,0.00,,---,0.00,VWS V14.00,2013-04-26 22:20:00,
2013-04-26 18:26:00,83.5,65.6,30.09,NNW,338,6.5,6.5,55,0.00,,---,0.00,VWS V14.00,2013-04-26 22:26:00,
2013-04-26 18:31:00,82.6,65.3,30.09,WNW,292,5.8,5.8,56,0.00,,---,0.00,VWS V14.00,2013-04-26 22:31:00,
2013-04-26 18:36:00,82.8,66.0,30.09,WNW,292,6.0,6.0,57,0.00,,---,0.00,VWS V14.00,2013-04-26 22:36:00,
2013-04-26 18:42:00,82.8,66.5,30.09,West,270,10.1,10.1,58,0.00,,---,0.00,VWS V14.00,2013-04-26 22:42:00,
2013-04-26 18:47:00,82.2,65.5,30.09,NNW,338,1.6,5.6,57,0.00,,---,0.00,VWS V14.00,2013-04-26 22:47:00,
2013-04-26 18:53:00,81.9,65.2,30.09,WNW,292,5.4,8.5,57,0.00,,---,0.00,VWS V14.00,2013-04-26 22:53:00,
2013-04-26 18:58:00,81.7,66.0,30.09,WNW,292,10.3,10.3,59,0.00,,---,0.00,VWS V14.00,2013-04-26 22:58:00,
2013-04-26 19:04:00,81.1,65.5,30.09,NNW,338,5.6,6.3,59,0.00,,---,0.00,VWS V14.00,2013-04-26 23:04:00,
2013-04-26 19:10:00,81.0,65.3,30.09,WNW,292,5.6,6.5,59,0.00,,---,0.00,VWS V14.00,2013-04-26 23:10:00,
2013-04-26 19:15:00,80.8,64.6,30.09,WNW,292,6.0,6.0,58,0.00,,---,0.00,VWS V14.00,2013-04-26 23:15:00,
2013-04-26 19:20:00,80.6,64.5,30.09,WNW,292,5.6,6.5,58,0.00,,---,0.00,VWS V14.00,2013-04-26 23:20:00,
2013-04-26 19:25:00,80.6,65.0,30.09,North,0,7.8,7.8,59,0.00,,---,0.00,VWS V14.00,2013-04-26 23:25:00,
2013-04-26 19:32:00,80.4,64.8,30.09,NNW,338,8.5,8.5,59,0.00,,---,0.00,VWS V14.00,2013-04-26 23:32:00,
2013-04-26 19:37:00,80.4,65.3,30.09,WNW,292,6.3,6.3,60,0.00,,---,0.00,VWS V14.00,2013-04-26 23:37:00,
2013-04-26 19:43:00,80.2,65.1,30.09,NW,315,4.7,7.6,60,0.00,,---,0.00,VWS V14.00,2013-04-26 23:43:00,
2013-04-26 19:49:00,80.1,64.9,30.09,NW,315,3.8,5.8,60,0.00,,---,0.00,VWS V14.00,2013-04-26 23:49:00,
2013-04-26 19:54:00,79.7,65.1,30.09,NNW,338,5.6,5.6,61,0.00,,---,0.00,VWS V14.00,2013-04-26 23:54:00,
2013-04-26 20:06:00,79.3,66.1,30.09,NW,315,4.9,4.9,64,0.00,,---,0.00,VWS V14.00,2013-04-27 00:06:00,
2013-04-26 20:11:00,78.8,65.6,30.09,WNW,292,4.7,7.6,64,0.00,,---,0.00,VWS V14.00,2013-04-27 00:11:00,
2013-04-26 20:17:00,78.4,66.2,30.09,NNW,338,6.0,6.0,66,0.00,,---,0.00,VWS V14.00,2013-04-27 00:17:00,
2013-04-26 20:22:00,78.4,66.2,30.09,NNW,338,4.3,4.3,66,0.00,,---,0.00,VWS V14.00,2013-04-27 00:22:00,
2013-04-26 20:28:00,78.3,66.4,30.09,NW,315,1.3,4.3,67,0.00,,---,0.00,VWS V14.00,2013-04-27 00:28:00,
2013-04-26 20:33:00,78.3,66.8,30.09,NE,45,3.8,6.5,68,0.00,,---,0.00,VWS V14.00,2013-04-27 00:33:00,
2013-04-26 20:38:00,78.3,66.8,30.09,NNW,338,2.9,4.9,68,0.00,,---,0.00,VWS V14.00,2013-04-27 00:38:00,
2013-04-26 20:45:00,78.1,66.7,30.09,NNE,22,6.0,6.0,68,0.00,,---,0.00,VWS V14.00,2013-04-27 00:45:00,
2013-04-26 20:51:00,78.1,66.7,30.09,NNW,338,3.6,3.6,68,0.00,,---,0.00,VWS V14.00,2013-04-27 00:51:00,
2013-04-26 20:56:00,78.1,67.1,30.09,NNW,338,3.1,3.1,69,0.00,,---,0.00,VWS V14.00,2013-04-27 00:56:00,
2013-04-26 21:03:00,77.9,66.9,30.12,NNW,338,2.7,2.7,69,0.00,,---,0.00,VWS V14.00,2013-04-27 01:03:00,
2013-04-26 21:09:00,77.9,66.9,30.12,NNW,338,3.4,3.4,69,0.00,,---,0.00,VWS V14.00,2013-04-27 01:09:00,
2013-04-26 21:14:00,77.7,66.8,30.12,NW,315,4.0,4.9,69,0.00,,---,0.00,VWS V14.00,2013-04-27 01:14:00,
2013-04-26 21:19:00,77.5,66.6,30.12,NNW,338,4.3,4.3,69,0.00,,---,0.00,VWS V14.00,2013-04-27 01:19:00,
2013-04-26 21:25:00,77.5,67.0,30.12,NW,315,2.7,3.8,70,0.00,,---,0.00,VWS V14.00,2013-04-27 01:25:00,
2013-04-26 21:31:00,77.4,66.8,30.12,North,0,3.8,4.0,70,0.00,,---,0.00,VWS V14.00,2013-04-27 01:31:00,
2013-04-26 21:36:00,77.4,66.4,30.12,NNW,338,4.3,4.3,69,0.00,,---,0.00,VWS V14.00,2013-04-27 01:36:00,
2013-04-26 21:42:00,77.2,66.2,30.12,NNW,338,2.5,3.1,69,0.00,,---,0.00,VWS V14.00,2013-04-27 01:42:00,
2013-04-26 21:47:00,77.2,66.7,30.12,NW,315,4.7,4.7,70,0.00,,---,0.00,VWS V14.00,2013-04-27 01:47:00,
2013-04-26 21:52:00,77.2,66.2,30.12,NNW,338,9.4,9.4,69,0.00,,---,0.00,VWS V14.00,2013-04-27 01:52:00,
2013-04-26 21:58:00,77.0,65.6,30.12,WNW,292,3.1,3.1,68,0.00,,---,0.00,VWS V14.00,2013-04-27 01:58:00,
2013-04-26 22:04:00,77.0,65.2,30.15,NE,45,3.6,5.4,67,0.00,,---,0.00,VWS V14.00,2013-04-27 02:04:00,
2013-04-26 22:10:00,77.0,64.8,30.15,NNW,338,5.4,5.4,66,0.00,,---,0.00,VWS V14.00,2013-04-27 02:10:00,
2013-04-26 22:16:00,76.8,64.2,30.15,NE,45,3.6,6.3,65,0.00,,---,0.00,VWS V14.00,2013-04-27 02:16:00,
2013-04-26 22:20:00,76.8,64.2,30.15,NNW,338,2.7,4.0,65,0.00,,---,0.00,VWS V14.00,2013-04-27 02:20:00,
2013-04-26 22:25:00,76.8,64.2,30.15,NE,45,4.3,4.3,65,0.00,,---,0.00,VWS V14.00,2013-04-27 02:25:00,
2013-04-26 22:31:00,76.6,63.6,30.15,NNE,22,4.0,5.6,64,0.00,,---,0.00,VWS V14.00,2013-04-27 02:31:00,
2013-04-26 22:37:00,76.6,63.6,30.15,NE,45,7.4,7.4,64,0.00,,---,0.00,VWS V14.00,2013-04-27 02:37:00,
2013-04-26 22:42:00,76.6,63.1,30.15,NNE,22,4.9,5.4,63,0.00,,---,0.00,VWS V14.00,2013-04-27 02:42:00,
2013-04-26 22:47:00,76.6,63.6,30.15,NNE,22,4.3,4.3,64,0.00,,---,0.00,VWS V14.00,2013-04-27 02:47:00,
2013-04-26 22:53:00,76.6,63.1,30.15,ENE,68,4.9,4.9,63,0.00,,---,0.00,VWS V14.00,2013-04-27 02:53:00,
2013-04-26 22:59:00,76.6,62.7,30.15,NNE,22,3.8,4.0,62,0.00,,---,0.00,VWS V14.00,2013-04-27 02:59:00,
2013-04-26 23:04:00,76.6,62.7,30.15,NE,45,2.9,3.6,62,0.00,,---,0.00,VWS V14.00,2013-04-27 03:04:00,
2013-04-26 23:09:00,76.6,63.1,30.15,NNE,22,3.6,4.0,63,0.00,,---,0.00,VWS V14.00,2013-04-27 03:09:00,
2013-04-26 23:16:00,76.5,62.5,30.15,NE,45,2.0,2.0,62,0.00,,---,0.00,VWS V14.00,2013-04-27 03:16:00,
2013-04-26 23:21:00,76.5,62.5,30.15,NNE,22,2.9,2.9,62,0.00,,---,0.00,VWS V14.00,2013-04-27 03:21:00,
2013-04-26 23:26:00,76.5,62.5,30.15,NE,45,2.9,2.9,62,0.00,,---,0.00,VWS V14.00,2013-04-27 03:26:00,
2013-04-26 23:32:00,76.3,62.3,30.15,NNE,22,2.5,2.5,62,0.00,,---,0.00,VWS V14.00,2013-04-27 03:32:00,
2013-04-26 23:38:00,76.3,62.3,30.15,East,90,1.1,1.1,62,0.00,,---,0.00,VWS V14.00,2013-04-27 03:38:00,
2013-04-26 23:43:00,76.3,62.3,30.15,ENE,68,2.7,2.7,62,0.00,,---,0.00,VWS V14.00,2013-04-27 03:43:00,
2013-04-26 23:48:00,76.3,62.3,30.15,ENE,68,2.0,2.7,62,0.00,,---,0.00,VWS V14.00,2013-04-27 03:48:00,
2013-04-26 23:54:00,76.3,62.8,30.15,ENE,68,2.5,2.5,63,0.00,,---,0.00,VWS V14.00,2013-04-27 03:54:00,
2013-04-26 23:59:00,76.1,62.6,30.15,ENE,68,2.2,2.2,63,0.00,,---,0.00,VWS V14.00,2013-04-27 03:59:00,